Time;durP1;ratioP1;P1;durP2;ratioP2;P2;SDS_P1;SDS_P2;PMS_P1;PMS_P2;Temp;Humidity;BMP_temperature;BMP_pressure;BME280_temperature;BME280_humidity;BME280_pressure;Samples;Min_cycle;Max_cycle;Signal;HPM_P1;HPM_P2
2021/11/17 02:26:22;;;;;;;14.53;5.57;;;7.50;1.00;;;;;;4993355;28;20463;-73
2021/11/17 02:29:11;;;;;;;10.57;5.47;;;7.60;1.00;;;;;;4994036;28;20511;-73
2021/11/17 02:31:51;;;;;;;12.50;6.20;;;7.60;1.00;;;;;;4994236;28;20927;-73
2021/11/17 02:34:24;;;;;;;8.60;4.90;;;7.60;1.00;;;;;;4996541;28;20405;-73
2021/11/17 02:37:12;;;;;;;11.83;5.57;;;7.60;1.00;;;;;;4997089;28;20444;-73
2021/11/17 02:39:52;;;;;;;10.73;5.50;;;7.60;1.00;;;;;;4993719;28;20428;-73
2021/11/17 02:42:30;;;;;;;9.53;6.00;;;7.60;1.00;;;;;;4978114;28;20491;-73
2021/11/17 02:45:29;;;;;;;15.23;6.60;;;7.60;1.00;;;;;;4993905;28;20539;-73
2021/11/17 02:48:20;;;;;;;10.30;5.70;;;7.60;1.00;;;;;;4990391;28;20432;-73
2021/11/17 02:50:46;;;;;;;11.00;6.40;;;7.60;1.00;;;;;;4976813;28;20441;-73
2021/11/17 02:53:52;;;;;;;10.50;6.27;;;7.60;1.00;;;;;;4997083;28;20413;-72
2021/11/17 02:56:28;;;;;;;11.57;6.40;;;7.60;1.00;;;;;;4993487;28;20189;-73
2021/11/17 02:59:15;;;;;;;13.20;7.47;;;7.60;1.00;;;;;;4992810;28;20429;-73
2021/11/17 03:01:59;;;;;;;14.60;6.50;;;7.60;1.00;;;;;;5001454;28;20502;-73
2021/11/17 03:04:46;;;;;;;15.10;7.33;;;7.60;1.00;;;;;;5021582;28;20470;-73
2021/11/17 03:07:18;;;;;;;12.80;7.07;;;7.60;1.00;;;;;;5026975;28;20750;-73
2021/11/17 03:10:31;;;;;;;12.57;6.50;;;7.60;1.00;;;;;;5015468;28;20479;-73
2021/11/17 03:13:27;;;;;;;12.83;6.60;;;7.60;1.00;;;;;;4993468;28;20520;-73
2021/11/17 03:16:08;;;;;;;14.33;6.70;;;7.60;1.00;;;;;;4993313;28;20428;-73
2021/11/17 03:19:00;;;;;;;19.43;7.60;;;7.60;1.00;;;;;;4978014;28;20432;-73
2021/11/17 03:21:35;;;;;;;13.20;6.67;;;7.60;1.00;;;;;;4973416;28;20487;-73
2021/11/17 03:24:40;;;;;;;16.60;7.70;;;7.60;1.00;;;;;;4993186;28;20411;-73
2021/11/17 03:27:09;;;;;;;15.53;7.27;;;7.60;1.00;;;;;;4982832;28;20460;-73
2021/11/17 03:29:40;;;;;;;14.53;7.53;;;7.60;1.00;;;;;;5000931;28;20528;-73
2021/11/17 03:32:28;;;;;;;12.20;6.37;;;7.60;1.00;;;;;;4993413;28;20440;-73
2021/11/17 03:35:15;;;;;;;14.40;7.40;;;7.60;1.00;;;;;;4993095;28;20471;-77
2021/11/17 03:38:11;;;;;;;15.23;7.17;;;7.60;1.00;;;;;;5002750;28;20589;-77
2021/11/17 03:44:15;;;;;;;12.07;6.43;;;7.70;1.00;;;;;;4997473;28;20973;-77
2021/11/17 03:47:21;;;;;;;18.43;7.13;;;7.70;1.00;;;;;;4974078;28;20441;-77
2021/11/17 03:50:27;;;;;;;12.37;7.43;;;7.60;1.00;;;;;;5015318;28;20973;-73
2021/11/17 03:52:59;;;;;;;10.10;6.67;;;7.60;1.00;;;;;;5011661;28;20438;-73
2021/11/17 03:55:27;;;;;;;17.80;7.97;;;7.70;1.00;;;;;;5014371;28;20519;-73
2021/11/17 03:58:17;;;;;;;10.80;6.17;;;7.70;1.00;;;;;;5014409;28;20474;-73
2021/11/17 04:01:10;;;;;;;15.53;6.60;;;7.60;1.00;;;;;;5012875;28;20502;-73
2021/11/17 04:03:54;;;;;;;15.50;7.27;;;7.60;1.00;;;;;;5014659;28;20480;-73
2021/11/17 04:06:27;;;;;;;25.13;7.67;;;7.60;1.00;;;;;;5014105;28;20423;-73
2021/11/17 04:09:14;;;;;;;13.57;7.00;;;7.50;1.00;;;;;;5014313;28;20461;-73
2021/11/17 04:11:50;;;;;;;19.53;7.80;;;7.60;1.00;;;;;;5014313;28;20420;-73
2021/11/17 04:14:31;;;;;;;17.87;7.27;;;7.60;1.00;;;;;;5014215;28;20410;-73
2021/11/17 04:16:59;;;;;;;11.23;6.67;;;7.60;1.00;;;;;;5005177;28;20420;-73
2021/11/17 04:20:09;;;;;;;10.97;6.23;;;7.60;1.00;;;;;;5014412;28;20423;-77
2021/11/17 04:23:02;;;;;;;13.53;7.50;;;7.60;1.00;;;;;;5014124;28;20416;-77
2021/11/17 04:25:55;;;;;;;9.93;6.00;;;7.60;1.00;;;;;;5014074;28;20923;-77
2021/11/17 04:28:57;;;;;;;19.60;7.30;;;7.60;1.00;;;;;;5013815;28;20431;-77
2021/11/17 04:31:52;;;;;;;12.43;6.40;;;7.60;1.00;;;;;;4994598;28;20404;-77
2021/11/17 04:34:52;;;;;;;13.43;5.37;;;7.50;1.00;;;;;;5009052;28;20502;-77
2021/11/17 04:37:28;;;;;;;9.40;4.80;;;7.60;1.00;;;;;;5014060;28;20921;-77
2021/11/17 04:43:33;;;;;;;9.77;5.37;;;7.50;1.00;;;;;;5014114;28;20439;-77
2021/11/17 04:46:07;;;;;;;10.07;5.70;;;7.50;1.00;;;;;;5013602;28;20509;-77
2021/11/17 04:49:14;;;;;;;11.10;5.07;;;7.50;1.00;;;;;;5014024;28;20854;-77
2021/11/17 04:52:27;;;;;;;9.97;5.50;;;7.50;1.00;;;;;;5007473;28;20438;-77
2021/11/17 05:01:40;;;;;;;26.63;3.70;;;7.40;1.00;;;;;;5009910;28;20420;-77
2021/11/17 05:04:08;;;;;;;4.97;3.40;;;7.40;1.00;;;;;;5014070;28;20435;-73
2021/11/17 05:07:05;;;;;;;7.10;4.90;;;7.40;1.00;;;;;;5013789;28;20427;-72
2021/11/17 05:09:40;;;;;;;6.93;4.53;;;7.40;1.00;;;;;;5012411;28;21092;-73
2021/11/17 05:12:38;;;;;;;6.60;3.83;;;7.30;1.00;;;;;;5012123;28;20485;-73
2021/11/17 05:15:22;;;;;;;4.03;2.90;;;7.30;1.00;;;;;;5013417;28;20457;-73
2021/11/17 05:18:16;;;;;;;5.07;3.50;;;7.30;1.00;;;;;;5004139;28;20405;-73
2021/11/17 05:21:35;;;;;;;3.30;2.57;;;7.30;1.00;;;;;;5000716;28;20424;-77
2021/11/17 05:24:25;;;;;;;12.33;4.10;;;7.20;1.00;;;;;;4972364;28;20840;-77
2021/11/17 05:27:15;;;;;;;4.67;3.00;;;7.30;1.00;;;;;;4988976;28;20885;-77
2021/11/17 05:29:55;;;;;;;7.80;4.30;;;7.30;1.00;;;;;;4985947;28;20424;-78
2021/11/17 05:32:37;;;;;;;3.20;2.87;;;7.30;1.00;;;;;;4971045;28;20429;-77
2021/11/17 05:35:20;;;;;;;6.40;3.47;;;7.30;1.00;;;;;;4972241;28;20525;-73
2021/11/17 05:37:56;;;;;;;3.53;3.23;;;7.30;1.00;;;;;;4971751;28;20445;-73
2021/11/17 05:40:27;;;;;;;5.60;2.80;;;7.30;1.00;;;;;;4959774;28;20425;-73
2021/11/17 05:43:20;;;;;;;5.63;3.10;;;7.30;1.00;;;;;;4982126;28;20432;-73
2021/11/17 05:46:17;;;;;;;8.53;3.97;;;7.30;1.00;;;;;;4965401;28;20456;-73
2021/11/17 05:52:24;;;;;;;4.67;2.73;;;7.30;1.00;;;;;;4972819;28;20421;-77
2021/11/17 05:58:19;;;;;;;10.90;3.83;;;7.30;1.00;;;;;;4973954;28;20452;-76
2021/11/17 06:04:08;;;;;;;3.47;2.67;;;7.30;1.00;;;;;;5008405;28;20957;-77
2021/11/17 06:07:03;;;;;;;8.67;3.30;;;7.30;1.00;;;;;;5016439;28;20430;-78
2021/11/17 06:09:39;;;;;;;4.57;3.00;;;7.40;1.00;;;;;;5016600;28;20757;-78
2021/11/17 06:12:27;;;;;;;3.20;2.90;;;7.30;1.00;;;;;;5016208;28;20419;-78
2021/11/17 06:14:53;;;;;;;6.57;4.50;;;7.30;1.00;;;;;;5016314;28;20789;-77
2021/11/17 06:17:52;;;;;;;5.70;3.93;;;7.30;1.00;;;;;;5016220;28;20503;-78
2021/11/17 06:20:57;;;;;;;6.17;3.87;;;7.30;1.00;;;;;;5003775;28;20482;-77
2021/11/17 06:23:39;;;;;;;4.90;3.70;;;7.30;1.00;;;;;;5014565;28;20415;-77
2021/11/17 06:29:35;;;;;;;5.17;3.70;;;7.40;1.00;;;;;;5002790;28;20547;-78
2021/11/17 06:32:03;;;;;;;6.70;3.90;;;7.30;1.00;;;;;;5008101;28;20438;-77
2021/11/17 06:34:38;;;;;;;7.83;4.90;;;7.30;1.00;;;;;;5019016;28;20454;-72
2021/11/17 06:37:18;;;;;;;6.63;4.30;;;7.40;1.00;;;;;;5015148;28;20981;-72
2021/11/17 06:39:58;;;;;;;8.10;4.33;;;7.40;1.00;;;;;;5002899;28;20412;-73
2021/11/17 06:42:33;;;;;;;6.23;3.90;;;7.40;1.00;;;;;;5010781;28;20523;-72
2021/11/17 06:44:59;;;;;;;7.20;3.80;;;7.40;1.00;;;;;;5015366;28;20935;-73
2021/11/17 06:47:25;;;;;;;5.67;4.10;;;7.40;1.00;;;;;;5015357;28;20463;-72
2021/11/17 06:49:53;;;;;;;9.40;4.37;;;7.30;1.00;;;;;;5016457;28;20526;-72
2021/11/17 06:52:19;;;;;;;6.37;4.03;;;7.40;1.00;;;;;;5007506;28;20460;-73
2021/11/17 06:54:45;;;;;;;27.80;11.93;;;7.40;1.00;;;;;;5017984;28;20480;-72
2021/11/17 06:57:11;;;;;;;11.77;7.47;;;7.70;1.00;;;;;;5014421;28;20419;-73
2021/11/17 06:59:37;;;;;;;17.77;9.90;;;7.80;1.00;;;;;;5014737;28;20558;-72
2021/11/17 07:02:05;;;;;;;9.80;4.87;;;7.80;1.00;;;;;;5015108;28;20455;-72
2021/11/17 07:04:35;;;;;;;9.53;5.17;;;7.80;1.00;;;;;;5015444;28;20215;-72
2021/11/17 07:07:21;;;;;;;7.13;3.73;;;7.80;1.00;;;;;;5015560;28;20424;-77
2021/11/17 07:09:47;;;;;;;7.13;4.17;;;7.80;1.00;;;;;;5011987;28;20432;-78
2021/11/17 07:12:13;;;;;;;7.47;4.27;;;7.70;1.00;;;;;;5011142;28;20420;-77
2021/11/17 07:14:40;;;;;;;4.20;2.93;;;7.60;1.00;;;;;;5014329;28;20256;-77
2021/11/17 07:17:06;;;;;;;4.10;3.00;;;7.60;1.00;;;;;;5012904;28;20473;-79
2021/11/17 07:19:31;;;;;;;9.03;3.60;;;7.50;1.00;;;;;;5014585;28;20416;-74
2021/11/17 07:22:00;;;;;;;6.17;3.73;;;7.50;1.00;;;;;;5014359;28;20640;-72
2021/11/17 07:24:28;;;;;;;4.10;3.17;;;7.50;1.00;;;;;;5013968;28;20823;-72
2021/11/17 07:26:54;;;;;;;9.03;4.20;;;7.30;1.00;;;;;;5013674;28;20864;-71
2021/11/17 07:29:20;;;;;;;4.77;3.20;;;7.40;1.00;;;;;;5014097;28;20412;-72
2021/11/17 07:31:46;;;;;;;8.23;3.63;;;7.50;1.00;;;;;;5013971;28;20469;-73
2021/11/17 07:34:12;;;;;;;2.60;2.40;;;7.50;1.00;;;;;;5013891;28;20579;-73
2021/11/17 07:36:38;;;;;;;4.17;3.33;;;;;;;;;;5014403;28;20257;-80
2021/11/17 07:39:06;;;;;;;5.53;4.07;;;7.50;1.00;;;;;;5013621;28;20415;-80
2021/11/17 07:42:15;;;;;;;6.00;3.30;;;7.50;1.00;;;;;;5014024;28;20430;-81
2021/11/17 07:44:45;;;;;;;4.63;3.17;;;7.50;1.00;;;;;;5025501;28;20459;-79
2021/11/17 07:47:21;;;;;;;7.70;4.00;;;7.50;1.00;;;;;;5013490;28;20972;-79
2021/11/17 07:49:51;;;;;;;5.00;3.10;;;7.40;1.00;;;;;;5013669;28;20811;-73
2021/11/17 07:52:17;;;;;;;5.30;3.20;;;7.40;1.00;;;;;;5014010;28;20985;-73
2021/11/17 07:54:43;;;;;;;5.47;3.47;;;7.40;1.00;;;;;;5014509;28;20517;-73
2021/11/17 07:57:09;;;;;;;4.50;3.00;;;7.40;1.00;;;;;;5014642;28;20208;-73
2021/11/17 07:59:36;;;;;;;5.63;3.67;;;7.40;1.00;;;;;;5014356;28;20561;-73
2021/11/17 08:02:12;;;;;;;4.10;2.90;;;7.40;1.00;;;;;;5014692;28;20471;-73
2021/11/17 08:04:41;;;;;;;5.70;2.93;;;7.50;1.00;;;;;;5013022;28;20868;-76
2021/11/17 08:07:14;;;;;;;5.50;3.30;;;7.50;1.00;;;;;;5014405;28;20903;-77
2021/11/17 08:09:44;;;;;;;3.10;2.90;;;7.50;1.00;;;;;;5007312;28;20440;-78
2021/11/17 08:12:10;;;;;;;4.00;2.83;;;7.40;1.00;;;;;;5009078;28;20570;-77
2021/11/17 08:14:36;;;;;;;3.90;3.00;;;7.40;1.00;;;;;;5007354;28;21024;-77
2021/11/17 08:17:02;;;;;;;5.10;2.57;;;7.40;1.00;;;;;;5012886;28;20191;-77
2021/11/17 08:19:27;;;;;;;3.17;2.40;;;7.40;1.00;;;;;;5013371;28;20412;-76
2021/11/17 08:21:53;;;;;;;2.63;1.83;;;7.40;1.00;;;;;;5013761;28;20847;-73
2021/11/17 08:24:19;;;;;;;1.97;1.83;;;;;;;;;;5012269;28;20205;-73
2021/11/17 08:26:45;;;;;;;3.40;2.20;;;;;;;;;;5012931;28;20411;-73
2021/11/17 08:29:13;;;;;;;2.07;1.70;;;7.30;1.00;;;;;;5013110;28;20535;-73
2021/11/17 08:31:39;;;;;;;1.10;0.97;;;7.20;1.00;;;;;;5013130;28;20451;-73
2021/11/17 08:34:05;;;;;;;1.70;1.57;;;7.20;1.00;;;;;;5012976;28;20898;-73
2021/11/17 08:36:31;;;;;;;3.33;1.67;;;7.10;1.00;;;;;;5013398;28;20503;-73
2021/11/17 08:38:57;;;;;;;2.67;1.40;;;7.10;1.00;;;;;;5012478;28;20184;-73
2021/11/17 08:41:25;;;;;;;1.73;1.20;;;7.10;1.00;;;;;;5013182;28;20189;-73
2021/11/17 08:43:51;;;;;;;1.60;1.50;;;7.30;1.00;;;;;;5005832;28;20986;-73
2021/11/17 08:46:18;;;;;;;2.50;1.70;;;7.20;1.00;;;;;;5011474;28;20950;-73
2021/11/17 08:48:44;;;;;;;1.20;1.10;;;7.40;1.00;;;;;;5012460;28;21011;-73
2021/11/17 08:51:14;;;;;;;2.60;1.70;;;7.50;1.00;;;;;;5011955;28;20443;-73
2021/11/17 08:53:42;;;;;;;1.73;1.50;;;7.70;1.00;;;;;;5008448;28;20319;-73
2021/11/17 08:56:09;;;;;;;1.77;1.67;;;7.70;1.00;;;;;;5001703;28;20459;-73
2021/11/17 08:58:36;;;;;;;2.70;1.73;;;7.90;1.00;;;;;;5010579;28;20427;-74
2021/11/17 09:01:03;;;;;;;4.30;1.77;;;8.20;1.00;;;;;;5012293;28;20897;-72
2021/11/17 09:03:29;;;;;;;3.80;1.87;;;8.10;1.00;;;;;;5009238;28;20443;-73
2021/11/17 09:05:59;;;;;;;2.00;1.90;;;8.30;1.00;;;;;;5012638;28;20432;-77
2021/11/17 09:08:26;;;;;;;2.30;1.83;;;8.50;1.00;;;;;;5007637;28;20440;-77
2021/11/17 09:10:56;;;;;;;1.20;1.10;;;8.50;1.00;;;;;;5011492;28;20522;-77
2021/11/17 09:13:21;;;;;;;1.57;1.10;;;8.70;1.00;;;;;;5004036;28;20434;-77
2021/11/17 09:15:50;;;;;;;1.70;1.40;;;8.80;1.00;;;;;;5011171;28;20831;-77
2021/11/17 09:18:19;;;;;;;2.20;1.47;;;8.90;1.00;;;;;;5007994;28;20784;-77
2021/11/17 09:20:45;;;;;;;7.17;1.97;;;9.00;1.00;;;;;;5012767;28;20420;-77
2021/11/17 09:23:15;;;;;;;2.10;1.90;;;9.00;1.00;;;;;;5011173;28;20528;-78
2021/11/17 09:25:41;;;;;;;2.00;1.40;;;9.20;1.00;;;;;;5012622;28;20188;-77
2021/11/17 09:28:07;;;;;;;2.10;1.63;;;9.20;1.00;;;;;;5012533;28;20420;-77
2021/11/17 09:30:35;;;;;;;2.63;1.67;;;9.20;1.00;;;;;;5012539;28;20416;-77
2021/11/17 09:33:02;;;;;;;1.70;1.60;;;9.20;1.00;;;;;;5012555;28;20424;-77
2021/11/17 09:35:31;;;;;;;1.47;1.37;;;9.30;1.00;;;;;;5014513;28;20968;-73
2021/11/17 09:37:58;;;;;;;1.73;1.63;;;9.40;1.00;;;;;;5016452;28;20420;-77
2021/11/17 09:40:44;;;;;;;1.47;1.37;;;9.30;1.00;;;;;;5016022;28;20419;-73
2021/11/17 09:43:16;;;;;;;1.83;1.70;;;9.20;1.00;;;;;;5015983;28;20430;-73
2021/11/17 09:45:44;;;;;;;2.37;1.40;;;9.20;1.00;;;;;;5013438;28;20845;-73
2021/11/17 09:48:13;;;;;;;2.63;1.33;;;9.10;1.00;;;;;;5016104;28;20438;-73
2021/11/17 09:50:52;;;;;;;0.80;0.80;;;8.90;1.00;;;;;;5016065;28;20658;-74
2021/11/17 09:53:44;;;;;;;1.60;0.90;;;8.90;1.00;;;;;;5015900;28;20422;-73
2021/11/17 09:56:26;;;;;;;2.10;1.00;;;8.90;1.00;;;;;;5022359;28;20459;-72
2021/11/17 09:58:55;;;;;;;0.80;0.80;;;8.90;1.00;;;;;;5015680;28;20881;-73
2021/11/17 10:01:26;;;;;;;0.90;0.90;;;8.70;1.00;;;;;;5015814;28;20416;-73
2021/11/17 10:04:00;;;;;;;1.00;1.00;;;8.90;1.00;;;;;;5015296;28;20443;-73
2021/11/17 10:14:48;;;;;;;1.13;1.03;;;9.00;1.00;;;;;;5009545;28;20517;-78
2021/11/17 10:17:38;;;;;;;0.87;0.87;;;9.00;1.00;;;;;;5014699;28;20427;-78
2021/11/17 10:20:12;;;;;;;1.07;0.97;;;9.00;1.00;;;;;;5015221;28;20423;-77
2021/11/17 10:22:43;;;;;;;0.97;0.97;;;9.00;1.00;;;;;;5013329;28;20445;-77
2021/11/17 10:25:18;;;;;;;0.80;0.80;;;9.00;1.00;;;;;;5015796;28;20443;-76
2021/11/17 10:28:03;;;;;;;2.50;1.93;;;9.00;1.00;;;;;;5002629;28;20542;-77
2021/11/17 10:30:34;;;;;;;0.80;0.80;;;9.10;1.00;;;;;;5011334;28;20427;-77
2021/11/17 10:33:26;;;;;;;1.47;0.90;;;9.10;1.00;;;;;;5015799;28;20415;-77
2021/11/17 10:36:02;;;;;;;1.47;1.10;;;9.30;1.00;;;;;;4999300;28;20481;-77
2021/11/17 10:38:53;;;;;;;1.00;0.90;;;9.40;1.00;;;;;;5016018;28;20419;-73
2021/11/17 10:41:31;;;;;;;1.70;1.00;;;9.50;1.00;;;;;;5016007;28;20407;-73
2021/11/17 10:44:03;;;;;;;1.23;1.13;;;9.50;1.00;;;;;;5015627;28;20446;-73
2021/11/17 10:46:51;;;;;;;3.20;1.40;;;9.60;1.00;;;;;;5013455;28;21076;-73
2021/11/17 10:49:24;;;;;;;1.50;1.30;;;9.50;1.00;;;;;;5005556;28;20762;-73
2021/11/17 10:51:57;;;;;;;1.60;1.50;;;9.50;1.00;;;;;;5016028;28;20829;-77
2021/11/17 10:54:28;;;;;;;1.90;1.40;;;9.50;1.00;;;;;;5015607;28;20420;-78
2021/11/17 10:57:08;;;;;;;2.07;1.70;;;10.00;1.00;;;;;;5015820;28;20458;-77
2021/11/17 10:59:58;;;;;;;3.87;2.13;;;9.60;1.00;;;;;;5015377;28;20463;-77
2021/11/17 11:02:36;;;;;;;1.93;1.37;;;9.70;1.00;;;;;;5015795;28;20427;-77
2021/11/17 11:05:17;;;;;;;11.60;2.17;;;9.80;1.00;;;;;;5015759;28;20439;-77
2021/11/17 11:08:04;;;;;;;3.13;1.77;;;;;;;;;;5015827;28;20424;-73
2021/11/17 11:10:42;;;;;;;3.73;1.80;;;9.70;1.00;;;;;;5015320;28;21118;-73
2021/11/17 11:13:18;;;;;;;8.07;2.10;;;9.60;1.00;;;;;;5014048;28;20518;-74
2021/11/17 11:15:51;;;;;;;2.60;1.67;;;9.40;1.00;;;;;;5013816;28;20462;-74
2021/11/17 11:18:19;;;;;;;2.27;2.07;;;9.40;1.00;;;;;;5014196;28;20420;-74
2021/11/17 11:20:45;;;;;;;2.50;2.13;;;9.40;1.00;;;;;;5014365;28;20419;-74
2021/11/17 11:23:32;;;;;;;2.50;2.00;;;9.60;1.00;;;;;;5003038;28;20435;-74
2021/11/17 11:25:58;;;;;;;2.33;1.80;;;9.60;1.00;;;;;;5006032;28;20430;-74
2021/11/17 11:28:39;;;;;;;3.57;1.70;;;9.60;1.00;;;;;;5014230;28;20428;-74
2021/11/17 11:31:06;;;;;;;1.90;1.80;;;9.60;1.00;;;;;;5007209;28;20193;-74
2021/11/17 11:33:31;;;;;;;1.70;1.60;;;9.50;1.00;;;;;;5013954;28;20780;-74
2021/11/17 11:36:12;;;;;;;1.27;1.17;;;9.70;1.00;;;;;;5014103;28;20543;-74
2021/11/17 11:38:43;;;;;;;1.30;1.20;;;9.80;1.00;;;;;;5014330;28;20184;-77
2021/11/17 11:41:30;;;;;;;1.40;1.30;;;9.80;1.00;;;;;;5014162;28;20416;-78
2021/11/17 11:44:23;;;;;;;1.63;1.53;;;10.00;1.00;;;;;;5014044;28;20435;-77
2021/11/17 11:46:57;;;;;;;1.40;1.30;;;10.10;1.00;;;;;;5013939;28;20420;-77
2021/11/17 11:49:35;;;;;;;5.13;1.20;;;10.20;1.00;;;;;;5012687;28;20438;-77
2021/11/17 11:52:03;;;;;;;1.30;1.20;;;10.00;1.00;;;;;;5014263;28;20424;-77
2021/11/17 11:54:32;;;;;;;2.60;1.43;;;10.00;1.00;;;;;;5013397;28;20458;-77
2021/11/17 11:57:01;;;;;;;1.20;1.10;;;10.10;1.00;;;;;;5017869;28;20427;-77
2021/11/17 11:59:29;;;;;;;1.10;1.10;;;10.10;1.00;;;;;;5013214;28;20917;-77
2021/11/17 12:02:19;;;;;;;1.10;1.00;;;10.10;1.00;;;;;;5013757;28;20459;-77
2021/11/17 12:04:52;;;;;;;1.30;1.20;;;10.10;1.00;;;;;;5012369;28;20443;-77
2021/11/17 12:07:37;;;;;;;1.40;1.30;;;10.10;1.00;;;;;;4999809;28;20477;-74
2021/11/17 12:10:33;;;;;;;1.40;1.30;;;10.10;1.00;;;;;;5012194;28;20913;-74
2021/11/17 12:13:12;;;;;;;2.23;1.60;;;9.90;1.00;;;;;;5012984;28;20443;-73
2021/11/17 12:15:40;;;;;;;9.73;2.03;;;9.60;1.00;;;;;;5012601;28;20820;-73
2021/11/17 12:18:18;;;;;;;2.17;1.67;;;9.60;1.00;;;;;;5008377;28;20428;-74
2021/11/17 12:21:06;;;;;;;1.73;1.63;;;9.50;1.00;;;;;;5012908;28;20875;-73
2021/11/17 12:24:03;;;;;;;3.97;1.77;;;9.40;1.00;;;;;;5004295;28;20490;-78
2021/11/17 12:26:34;;;;;;;2.80;2.27;;;9.50;1.00;;;;;;5009909;28;20475;-79
2021/11/17 12:29:04;;;;;;;1.93;1.60;;;9.40;1.00;;;;;;5008528;28;20420;-78
2021/11/17 12:31:51;;;;;;;1.60;1.37;;;9.50;1.00;;;;;;5010339;28;20436;-80
2021/11/17 12:34:24;;;;;;;1.97;1.57;;;9.50;1.00;;;;;;5012965;28;20461;-79
2021/11/17 12:36:57;;;;;;;3.07;2.30;;;9.50;1.00;;;;;;5011255;28;20798;-80
2021/11/17 12:39:25;;;;;;;2.57;1.80;;;9.40;1.00;;;;;;5012881;28;20918;-74
2021/11/17 12:41:54;;;;;;;2.23;1.57;;;9.40;1.00;;;;;;5005431;28;20438;-74
2021/11/17 12:44:29;;;;;;;3.50;1.73;;;9.50;1.00;;;;;;5012273;28;20439;-75
2021/11/17 12:47:06;;;;;;;1.53;1.43;;;9.50;1.00;;;;;;5013113;28;20450;-75
2021/11/17 12:50:02;;;;;;;1.97;1.77;;;9.60;1.00;;;;;;5013234;28;20461;-75
2021/11/17 12:52:40;;;;;;;1.97;1.70;;;9.50;1.00;;;;;;5008801;28;20434;-80
2021/11/17 12:55:18;;;;;;;3.03;1.77;;;9.50;1.00;;;;;;5019241;28;20462;-80
2021/11/17 12:58:06;;;;;;;1.57;1.47;;;9.20;1.00;;;;;;5012599;28;20471;-80
2021/11/17 13:00:38;;;;;;;1.17;1.10;;;9.20;1.00;;;;;;5012691;28;20443;-80
2021/11/17 13:03:07;;;;;;;1.70;1.50;;;9.10;1.00;;;;;;5012897;28;20444;-80
2021/11/17 13:05:40;;;;;;;3.03;1.33;;;9.20;1.00;;;;;;5012867;28;20424;-80
2021/11/17 13:08:05;;;;;;;1.53;1.43;;;9.20;1.00;;;;;;5006649;28;20416;-78
2021/11/17 13:11:05;;;;;;;3.50;1.77;;;9.20;1.00;;;;;;5014966;28;20953;-78
2021/11/17 13:13:45;;;;;;;3.57;1.70;;;9.20;1.00;;;;;;5016401;28;20216;-79
2021/11/17 13:16:24;;;;;;;1.70;1.37;;;9.30;1.00;;;;;;5016763;28;20946;-78
2021/11/17 13:19:01;;;;;;;1.23;1.10;;;9.40;1.00;;;;;;5010083;28;20431;-78
2021/11/17 13:21:29;;;;;;;3.60;1.70;;;9.40;1.00;;;;;;5014556;28;20428;-78
2021/11/17 13:24:22;;;;;;;1.33;1.10;;;9.30;1.00;;;;;;5013496;28;20467;-78
2021/11/17 13:27:12;;;;;;;2.53;1.70;;;9.30;1.00;;;;;;5007011;28;20435;-78
2021/11/17 13:30:20;;;;;;;1.70;1.60;;;9.40;1.00;;;;;;5016345;28;20426;-78
2021/11/17 13:32:48;;;;;;;3.00;1.87;;;9.20;1.00;;;;;;4994508;28;20428;-78
2021/11/17 13:35:43;;;;;;;1.70;1.50;;;9.20;1.00;;;;;;4993908;28;20487;-78
2021/11/17 13:38:16;;;;;;;2.70;1.90;;;9.30;1.00;;;;;;4944197;29;20440;-78
2021/11/17 13:40:46;;;;;;;2.50;1.20;;;9.30;1.00;;;;;;4937703;29;20500;-78
2021/11/17 13:43:12;;;;;;;1.77;1.30;;;9.30;1.00;;;;;;4936358;29;20821;-78
2021/11/17 13:45:39;;;;;;;2.40;1.40;;;7.90;1.00;;;;;;4936133;29;20454;-78
2021/11/17 13:48:36;;;;;;;1.50;1.40;;;9.40;1.00;;;;;;4953081;29;20450;-78
2021/11/17 13:55:15;;;;;;;1.57;1.47;;;9.50;1.00;;;;;;4956022;29;20410;-79
2021/11/17 13:58:09;;;;;;;1.33;1.23;;;9.60;1.00;;;;;;4937289;29;20395;-78
2021/11/17 14:01:10;;;;;;;1.10;1.00;;;9.50;1.00;;;;;;4950205;29;20431;-77
2021/11/17 14:03:52;;;;;;;2.30;1.20;;;9.50;1.00;;;;;;4950013;29;20434;-77
2021/11/17 14:07:03;;;;;;;2.50;1.83;;;9.50;1.00;;;;;;4948352;29;20983;-77
2021/11/17 14:09:29;;;;;;;1.47;1.37;;;9.40;1.00;;;;;;4948203;29;20418;-73
2021/11/17 14:11:56;;;;;;;1.40;1.30;;;9.40;1.00;;;;;;4950932;29;20562;-73
2021/11/17 14:14:22;;;;;;;1.97;1.40;;;9.40;1.00;;;;;;4965493;28;20420;-73
2021/11/17 14:16:52;;;;;;;1.63;1.20;;;9.40;1.00;;;;;;5014982;28;20423;-72
2021/11/17 14:19:21;;;;;;;1.30;1.10;;;9.50;1.00;;;;;;5015811;28;20565;-73
2021/11/17 14:21:47;;;;;;;1.20;1.10;;;9.50;1.00;;;;;;5015259;28;20506;-72
2021/11/17 14:24:14;;;;;;;2.23;1.47;;;9.50;1.00;;;;;;5015685;28;20519;-73
2021/11/17 14:26:47;;;;;;;1.93;1.37;;;;;;;;;;5002029;28;20569;-75
2021/11/17 14:29:41;;;;;;;1.87;1.53;;;;;;;;;;5006694;28;20436;-73
2021/11/17 14:32:11;;;;;;;3.07;1.50;;;9.60;1.00;;;;;;5012151;28;20467;-73
2021/11/17 14:34:37;;;;;;;1.37;1.27;;;9.70;1.00;;;;;;5010619;28;20976;-73
2021/11/17 14:37:05;;;;;;;1.30;1.20;;;9.60;1.00;;;;;;5008025;28;20427;-73
2021/11/17 14:39:36;;;;;;;1.50;1.40;;;9.60;1.00;;;;;;5014487;28;20899;-74
2021/11/17 14:42:03;;;;;;;1.30;1.20;;;9.60;1.00;;;;;;5006263;28;20796;-73
2021/11/17 14:44:30;;;;;;;1.00;1.00;;;9.60;1.00;;;;;;5014410;28;20491;-74
2021/11/17 14:46:57;;;;;;;1.17;1.07;;;9.60;1.00;;;;;;5008617;28;20554;-75
2021/11/17 14:49:23;;;;;;;1.10;1.10;;;9.60;1.00;;;;;;5007055;28;20440;-74
2021/11/17 14:51:49;;;;;;;1.77;1.33;;;9.60;1.00;;;;;;5013399;28;20451;-74
2021/11/17 14:54:16;;;;;;;1.00;1.00;;;9.60;1.00;;;;;;5011689;28;20465;-73
2021/11/17 14:56:44;;;;;;;1.20;1.10;;;9.50;1.00;;;;;;5002393;28;20468;-73
2021/11/17 14:59:10;;;;;;;4.87;1.37;;;;;;;;;;5009605;28;20962;-73
2021/11/17 15:01:40;;;;;;;2.97;1.40;;;9.50;1.00;;;;;;5011862;28;20776;-73
2021/11/17 15:04:06;;;;;;;2.00;1.63;;;9.50;1.00;;;;;;5010233;28;20606;-73
2021/11/17 15:06:35;;;;;;;1.40;1.30;;;9.40;1.00;;;;;;5009507;28;20455;-73
2021/11/17 15:09:00;;;;;;;2.90;1.30;;;9.40;1.00;;;;;;5011192;28;20481;-73
2021/11/17 15:11:27;;;;;;;1.70;1.20;;;11.10;1.00;;;;;;5012796;28;20530;-72
2021/11/17 15:13:53;;;;;;;1.90;1.43;;;9.40;1.00;;;;;;5012367;28;20554;-74
2021/11/17 15:16:20;;;;;;;1.10;1.10;;;9.30;1.00;;;;;;5005796;28;20515;-75
2021/11/17 15:18:47;;;;;;;5.20;1.40;;;9.30;1.00;;;;;;5013630;28;20655;-73
2021/11/17 15:21:17;;;;;;;1.13;1.00;;;9.20;1.00;;;;;;5013199;28;20443;-73
2021/11/17 15:23:45;;;;;;;2.50;1.20;;;9.20;1.00;;;;;;5011485;28;20514;-73
2021/11/17 15:26:13;;;;;;;1.57;1.47;;;9.20;1.00;;;;;;5014109;28;20518;-75
2021/11/17 15:28:48;;;;;;;2.63;1.20;;;9.10;1.00;;;;;;5013769;28;20928;-73
2021/11/17 15:31:19;;;;;;;1.10;1.00;;;9.10;1.00;;;;;;5012054;28;20436;-73
2021/11/17 15:33:46;;;;;;;1.40;1.30;;;9.10;1.00;;;;;;5013927;28;20420;-73
2021/11/17 15:36:16;;;;;;;2.77;1.70;;;9.10;1.00;;;;;;5014111;28;20476;-72
2021/11/17 15:38:44;;;;;;;5.73;1.83;;;9.00;1.00;;;;;;5013890;28;20421;-72
2021/11/17 15:41:13;;;;;;;1.67;1.20;;;9.10;1.00;;;;;;5003910;28;20474;-73
2021/11/17 15:43:42;;;;;;;2.40;1.20;;;9.00;1.00;;;;;;5013869;28;20907;-74
2021/11/17 15:46:09;;;;;;;1.37;1.23;;;8.90;1.00;;;;;;5013794;28;20790;-73
2021/11/17 15:48:36;;;;;;;2.33;1.20;;;8.90;1.00;;;;;;5013913;28;20463;-73
2021/11/17 15:51:26;;;;;;;1.27;1.10;;;8.90;1.00;;;;;;5013800;28;20427;-73
2021/11/17 15:53:52;;;;;;;1.70;1.43;;;8.90;1.00;;;;;;5013753;28;20431;-73
2021/11/17 15:56:19;;;;;;;2.10;1.67;;;8.90;1.00;;;;;;5006618;28;20566;-74
2021/11/17 15:58:58;;;;;;;1.60;1.50;;;8.90;1.00;;;;;;5014075;28;20423;-73
2021/11/17 16:01:34;;;;;;;2.40;1.57;;;8.80;1.00;;;;;;5020906;28;20443;-74
2021/11/17 16:04:04;;;;;;;1.70;1.60;;;8.90;1.00;;;;;;5002307;28;20498;-73
2021/11/17 16:06:32;;;;;;;3.77;1.53;;;8.80;1.00;;;;;;5012991;28;20439;-73
2021/11/17 16:08:58;;;;;;;1.70;1.60;;;8.80;1.00;;;;;;5006238;28;20946;-73
2021/11/17 16:11:24;;;;;;;3.00;2.03;;;8.80;1.00;;;;;;5009441;28;20412;-73
2021/11/17 16:13:50;;;;;;;1.53;1.43;;;8.90;1.00;;;;;;5014580;28;20474;-74
2021/11/17 16:20:21;;;;;;;1.30;1.30;;;8.90;1.00;;;;;;5014190;28;20183;-78
2021/11/17 16:26:23;;;;;;;1.70;1.30;;;8.70;1.00;;;;;;5013992;28;20415;-77
2021/11/17 16:32:11;;;;;;;6.27;2.30;;;8.80;1.00;;;;;;5006405;28;20769;-77
2021/11/17 16:34:41;;;;;;;2.13;2.03;;;8.80;1.00;;;;;;5013685;28;20424;-77
2021/11/17 16:37:07;;;;;;;1.80;1.70;;;8.80;1.00;;;;;;5013911;28;20181;-77
2021/11/17 16:39:34;;;;;;;2.03;1.90;;;8.80;1.00;;;;;;5007713;28;20548;-77
2021/11/17 16:42:10;;;;;;;9.73;2.10;;;8.80;1.00;;;;;;5007006;28;20412;-78
2021/11/17 16:44:46;;;;;;;4.57;1.97;;;8.80;1.00;;;;;;5003506;28;20514;-74
2021/11/17 16:47:12;;;;;;;6.57;1.93;;;8.80;1.00;;;;;;5013824;28;20439;-74
2021/11/17 16:49:42;;;;;;;2.00;1.90;;;8.90;1.00;;;;;;5014176;28;20447;-75
2021/11/17 16:52:26;;;;;;;2.70;1.77;;;8.90;1.00;;;;;;5014063;28;20965;-74
2021/11/17 16:55:00;;;;;;;2.10;2.00;;;8.90;1.00;;;;;;5017066;28;20532;-74
2021/11/17 16:57:30;;;;;;;2.03;1.90;;;8.80;1.00;;;;;;5010086;28;20466;-74
2021/11/17 17:03:20;;;;;;;1.90;1.80;;;8.80;1.00;;;;;;5013099;28;20403;-78
2021/11/17 17:05:48;;;;;;;2.50;2.30;;;8.80;1.00;;;;;;4994317;28;20453;-78
2021/11/17 17:09:03;;;;;;;2.13;1.87;;;8.90;1.00;;;;;;5008728;28;20423;-78
2021/11/17 17:15:17;;;;;;;2.13;1.93;;;8.90;1.00;;;;;;5013749;28;20471;-79
2021/11/17 17:18:27;;;;;;;4.00;2.07;;;8.90;1.00;;;;;;5006201;28;20424;-76